Time;durP1;ratioP1;P1;durP2;ratioP2;P2;SDS_P1;SDS_P2;PMS_P1;PMS_P2;Temp;Humidity;BMP_temperature;BMP_pressure;BME280_temperature;BME280_humidity;BME280_pressure;Samples;Min_cycle;Max_cycle;Signal;HPM_P1;HPM_P2
2023/04/28 00:00:04;;;;;;;2.33;1.45;;;;;;;;;;5028711;28;20033;-84
2023/04/28 00:02:30;;;;;;;2.45;1.73;;;;;;;;;;5046909;28;20147;-84
2023/04/28 00:04:56;;;;;;;2.95;1.35;;;;;;;;;;5025078;28;20038;-85
2023/04/28 00:07:22;;;;;;;2.08;1.30;;;;;;;;;;5017291;28;20077;-84
2023/04/28 00:09:47;;;;;;;3.78;1.40;;;;;;;;;;5019678;28;20056;-85
2023/04/28 00:12:13;;;;;;;2.13;1.38;;;;;;;;;;5038183;28;20034;-84
2023/04/28 00:14:39;;;;;;;2.47;1.30;;;;;;;;;;5026078;28;20495;-84
2023/04/28 00:17:04;;;;;;;2.80;1.20;;;;;;;;;;5029217;28;20018;-84
2023/04/28 00:19:30;;;;;;;2.53;1.30;;;;;;;;;;5031524;28;20048;-85
2023/04/28 00:21:55;;;;;;;2.85;1.50;;;;;;;;;;5022254;28;20042;-85
2023/04/28 00:24:21;;;;;;;1.90;1.25;;;;;;;;;;5017775;28;20034;-84
2023/04/28 00:26:46;;;;;;;2.45;1.33;;;;;;;;;;5020209;28;20506;-84
2023/04/28 00:29:12;;;;;;;2.63;1.20;;;;;;;;;;5023936;28;20036;-84
2023/04/28 00:31:37;;;;;;;1.90;1.20;;;;;;;;;;5026313;28;20065;-84
2023/04/28 00:34:03;;;;;;;1.88;1.30;;;;;;;;;;5028286;28;20041;-82
2023/04/28 00:36:31;;;;;;;1.85;1.30;;;;;;;;;;5030242;28;20128;-85
2023/04/28 00:38:57;;;;;;;1.88;1.40;;;;;;;;;;5037115;22;20039;-87
2023/04/28 00:41:22;;;;;;;3.97;1.42;;;;;;;;;;4998381;28;20081;-87
2023/04/28 00:43:49;;;;;;;1.73;1.25;;;;;;;;;;4973815;28;20061;-84
2023/04/28 00:46:28;;;;;;;2.33;1.23;;;;;;;;;;4996920;28;20034;-84
2023/04/28 00:48:54;;;;;;;1.52;1.20;;;;;;;;;;4994655;28;20030;-86
2023/04/28 00:51:20;;;;;;;3.63;1.40;;;;;;;;;;4996889;28;20121;-87
2023/04/28 00:53:46;;;;;;;3.20;1.35;;;;;;;;;;4995958;28;20101;-86
2023/04/28 00:56:12;;;;;;;1.38;1.20;;;;;;;;;;4996441;28;20042;-86
2023/04/28 00:58:38;;;;;;;2.45;1.33;;;;;;;;;;4978045;28;20038;-85
2023/04/28 01:01:04;;;;;;;1.55;1.30;;;;;;;;;;4992119;28;20113;-85
2023/04/28 01:03:33;;;;;;;2.03;1.50;;;;;;;;;;4991607;28;20077;-86
2023/04/28 01:06:00;;;;;;;2.30;1.50;;;;;;;;;;4990904;28;20113;-84
2023/04/28 01:08:34;;;;;;;1.95;1.45;;;;;;;;;;4988683;28;20031;-83
2023/04/28 01:11:01;;;;;;;2.08;1.30;;;;;;;;;;4992242;28;20041;-84
2023/04/28 01:13:45;;;;;;;4.32;1.30;;;;;;;;;;4992237;28;20125;-83
2023/04/28 01:16:11;;;;;;;3.53;1.30;;;;;;;;;;4997278;28;20050;-85
2023/04/28 01:18:41;;;;;;;3.00;1.30;;;;;;;;;;4996129;28;20046;-86
2023/04/28 01:21:07;;;;;;;1.73;1.40;;;;;;;;;;4995694;28;20067;-86
2023/04/28 01:23:32;;;;;;;2.25;1.30;;;;;;;;;;4994972;28;20500;-87
2023/04/28 01:25:58;;;;;;;3.33;1.50;;;;;;;;;;4994690;28;20094;-85
2023/04/28 01:28:23;;;;;;;2.30;1.50;;;;;;;;;;4992016;28;20537;-86
2023/04/28 01:30:51;;;;;;;2.60;1.30;;;;;;;;;;4974799;28;20026;-86
2023/04/28 01:33:16;;;;;;;4.68;1.52;;;;;;;;;;4994085;28;20517;-86
2023/04/28 01:35:42;;;;;;;1.88;1.40;;;;;;;;;;4996397;28;20030;-85
2023/04/28 01:38:09;;;;;;;5.50;1.50;;;;;;;;;;4994389;28;20042;-86
2023/04/28 01:40:35;;;;;;;3.17;1.40;;;;;;;;;;4995705;28;20440;-85
2023/04/28 01:43:00;;;;;;;2.55;1.25;;;;;;;;;;4990991;28;20070;-86
2023/04/28 01:45:29;;;;;;;1.77;1.30;;;;;;;;;;4999459;28;20499;-85
2023/04/28 01:47:54;;;;;;;1.77;1.27;;;;;;;;;;4996747;28;20042;-87
2023/04/28 01:50:20;;;;;;;2.25;1.42;;;;;;;;;;4995173;28;20046;-86
2023/04/28 01:52:45;;;;;;;3.97;1.40;;;;;;;;;;4994838;28;20030;-86
2023/04/28 01:55:11;;;;;;;1.77;1.08;;;;;;;;;;4994822;28;20607;-86
2023/04/28 01:57:37;;;;;;;2.97;1.50;;;;;;;;;;4995035;28;20026;-85
2023/04/28 02:00:03;;;;;;;2.35;1.30;;;;;;;;;;4996432;28;20400;-84
2023/04/28 02:02:31;;;;;;;3.10;1.40;;;;;;;;;;4995153;28;20035;-84
2023/04/28 02:04:57;;;;;;;1.65;1.30;;;;;;;;;;4995068;28;20084;-83
2023/04/28 02:07:23;;;;;;;3.03;1.40;;;;;;;;;;4978282;28;20174;-84
2023/04/28 02:09:48;;;;;;;2.17;1.40;;;;;;;;;;4995259;28;20125;-85
2023/04/28 02:12:15;;;;;;;2.10;1.40;;;;;;;;;;4995438;28;20471;-85
2023/04/28 02:14:40;;;;;;;1.40;1.30;;;;;;;;;;4995256;28;20038;-85
2023/04/28 02:17:06;;;;;;;2.30;1.40;;;;;;;;;;4983178;28;20031;-85
2023/04/28 02:19:32;;;;;;;1.73;1.30;;;;;;;;;;4994437;28;20041;-85
2023/04/28 02:21:57;;;;;;;2.65;1.27;;;;;;;;;;4997546;28;20113;-85
2023/04/28 02:24:23;;;;;;;1.90;1.40;;;;;;;;;;4997809;28;20030;-85
2023/04/28 02:26:49;;;;;;;2.63;1.25;;;;;;;;;;4998377;28;20388;-85
2023/04/28 02:29:14;;;;;;;2.13;1.40;;;;;;;;;;4995454;28;20042;-84
2023/04/28 02:31:40;;;;;;;2.05;1.25;;;;;;;;;;4996081;28;20038;-85
2023/04/28 02:34:05;;;;;;;2.10;1.30;;;;;;;;;;4992280;28;20410;-85
2023/04/28 02:36:32;;;;;;;2.80;1.50;;;;;;;;;;4991729;28;20030;-85
2023/04/28 02:38:57;;;;;;;1.67;1.25;;;;;;;;;;4976629;28;20042;-84
2023/04/28 02:41:23;;;;;;;2.10;1.40;;;;;;;;;;4993163;28;20034;-85
2023/04/28 02:43:49;;;;;;;3.40;1.40;;;;;;;;;;4992754;28;20583;-85
2023/04/28 02:46:15;;;;;;;1.73;1.20;;;;;;;;;;4993046;28;20049;-84
2023/04/28 02:48:40;;;;;;;2.15;1.30;;;;;;;;;;4992118;28;20418;-84
2023/04/28 02:51:06;;;;;;;2.28;1.25;;;;;;;;;;4993081;28;20081;-86
2023/04/28 02:53:33;;;;;;;2.22;1.23;;;;;;;;;;4992596;28;20034;-85
2023/04/28 02:56:00;;;;;;;2.83;1.35;;;;;;;;;;4992531;28;20527;-84
2023/04/28 02:58:26;;;;;;;4.53;1.25;;;;;;;;;;4991349;28;20041;-83
2023/04/28 03:00:52;;;;;;;2.95;1.15;;;;;;;;;;4992647;28;20113;-85
2023/04/28 03:03:17;;;;;;;1.75;1.30;;;;;;;;;;4989946;28;20394;-85
2023/04/28 03:05:43;;;;;;;3.20;1.45;;;;;;;;;;4992625;28;20118;-85
2023/04/28 03:08:09;;;;;;;2.35;1.33;;;;;;;;;;4997666;28;20041;-86
2023/04/28 03:10:34;;;;;;;1.73;1.20;;;;;;;;;;5001384;28;20493;-84
2023/04/28 03:13:01;;;;;;;2.85;1.40;;;;;;;;;;4986066;28;20038;-85
2023/04/28 03:15:28;;;;;;;2.05;1.35;;;;;;;;;;4992897;28;20594;-87
2023/04/28 03:17:53;;;;;;;1.92;1.33;;;;;;;;;;4984001;28;20106;-85
2023/04/28 03:20:19;;;;;;;3.63;1.83;;;;;;;;;;4975831;28;20048;-84
2023/04/28 03:22:44;;;;;;;4.05;1.50;;;;;;;;;;4992489;28;20038;-84
2023/04/28 03:25:10;;;;;;;2.90;1.50;;;;;;;;;;4992352;28;20070;-84
2023/04/28 03:27:44;;;;;;;2.40;1.75;;;;;;;;;;4992007;28;20030;-82
2023/04/28 03:30:10;;;;;;;3.92;1.40;;;;;;;;;;4991032;28;20043;-85
2023/04/28 03:32:36;;;;;;;2.72;1.73;;;;;;;;;;4992003;28;20042;-84
2023/04/28 03:35:01;;;;;;;3.65;1.65;;;;;;;;;;5005577;28;20045;-85
2023/04/28 03:37:27;;;;;;;2.17;1.60;;;;;;;;;;4987457;28;20413;-86
2023/04/28 03:39:52;;;;;;;3.42;1.70;;;;;;;;;;4996305;28;20062;-87
2023/04/28 03:42:18;;;;;;;3.95;1.63;;;;;;;;;;4982308;28;20508;-85
2023/04/28 03:45:16;;;;;;;3.58;1.55;;;;;;;;;;4988355;28;20097;-86
2023/04/28 03:47:41;;;;;;;2.35;1.70;;;;;;;;;;4999848;28;20078;-86
2023/04/28 03:50:07;;;;;;;4.65;1.60;;;;;;;;;;4997813;28;20034;-86
2023/04/28 03:52:34;;;;;;;3.03;1.48;;;;;;;;;;4997274;28;20031;-84
2023/04/28 03:54:59;;;;;;;2.42;1.40;;;;;;;;;;4995541;28;20046;-87
2023/04/28 03:57:25;;;;;;;3.20;1.67;;;;;;;;;;4995103;28;20038;-84
2023/04/28 03:59:50;;;;;;;2.38;1.35;;;;;;;;;;4998374;28;20036;-86
2023/04/28 04:02:16;;;;;;;3.70;1.40;;;;;;;;;;4997601;28;20117;-84
2023/04/28 04:04:42;;;;;;;4.20;1.45;;;;;;;;;;4995934;28;20463;-85
2023/04/28 04:07:08;;;;;;;2.15;1.30;;;;;;;;;;4996917;28;20495;-85
2023/04/28 04:09:34;;;;;;;2.17;1.40;;;;;;;;;;4997868;28;20034;-86
2023/04/28 04:12:00;;;;;;;3.45;1.20;;;;;;;;;;4993772;28;20072;-84
2023/04/28 04:14:26;;;;;;;9.18;5.22;;;;;;;;;;4995393;28;20077;-83
2023/04/28 04:16:51;;;;;;;2.72;1.60;;;;;;;;;;4994981;28;20062;-85
2023/04/28 04:19:17;;;;;;;2.33;1.50;;;;;;;;;;4984143;28;20039;-85
2023/04/28 04:21:43;;;;;;;2.10;1.38;;;;;;;;;;4991319;28;20066;-87
2023/04/28 04:24:08;;;;;;;1.60;1.30;;;;;;;;;;4997649;28;20033;-86
2023/04/28 04:26:34;;;;;;;2.33;1.50;;;;;;;;;;4979480;28;20030;-86
2023/04/28 04:29:00;;;;;;;1.73;1.27;;;;;;;;;;4990980;28;20141;-86
2023/04/28 04:31:26;;;;;;;1.85;1.50;;;;;;;;;;4993012;28;20566;-85
2023/04/28 04:33:52;;;;;;;3.85;1.70;;;;;;;;;;4989222;28;20041;-84
2023/04/28 04:36:19;;;;;;;1.90;1.30;;;;;;;;;;4991359;28;20038;-86
2023/04/28 04:38:45;;;;;;;1.55;1.17;;;;;;;;;;4992168;28;20045;-85
2023/04/28 04:41:14;;;;;;;1.50;1.25;;;;;;;;;;4993339;28;20136;-86
2023/04/28 04:43:40;;;;;;;1.73;1.23;;;;;;;;;;4977131;28;20134;-85
2023/04/28 04:46:06;;;;;;;1.52;1.30;;;;;;;;;;4977328;28;20058;-86
2023/04/28 04:48:32;;;;;;;2.10;1.10;;;;;;;;;;4991889;28;20038;-85
2023/04/28 04:50:58;;;;;;;1.83;1.10;;;;;;;;;;4993136;28;20030;-85
2023/04/28 04:53:24;;;;;;;1.85;1.40;;;;;;;;;;4992148;28;20038;-84
2023/04/28 04:55:50;;;;;;;2.22;1.40;;;;;;;;;;4993759;28;20034;-86
2023/04/28 04:58:16;;;;;;;5.60;1.63;;;;;;;;;;4991717;28;20093;-87
2023/04/28 05:01:13;;;;;;;6.38;1.50;;;;;;;;;;4991796;28;20038;-86
2023/04/28 05:03:40;;;;;;;3.40;1.40;;;;;;;;;;4990519;28;20137;-85
2023/04/28 05:06:05;;;;;;;4.40;1.40;;;;;;;;;;4990718;28;20214;-84
2023/04/28 05:08:43;;;;;;;1.73;1.13;;;;;;;;;;4976274;28;20038;-85
2023/04/28 05:11:09;;;;;;;1.88;1.20;;;;;;;;;;4991018;28;20034;-87
2023/04/28 05:13:35;;;;;;;5.25;1.30;;;;;;;;;;4990265;28;20452;-85
2023/04/28 05:16:02;;;;;;;5.15;1.27;;;;;;;;;;4992282;28;20037;-86
2023/04/28 05:18:48;;;;;;;2.58;1.15;;;;;;;;;;4990207;28;20035;-85
2023/04/28 05:21:14;;;;;;;1.85;1.50;;;;;;;;;;5002502;28;20069;-85
2023/04/28 05:23:40;;;;;;;3.25;1.10;;;;;;;;;;4976016;28;20062;-86
2023/04/28 05:26:06;;;;;;;2.35;1.30;;;;;;;;;;4987667;28;20463;-86
2023/04/28 05:28:32;;;;;;;2.55;1.30;;;;;;;;;;4994043;28;20570;-86
2023/04/28 05:31:00;;;;;;;2.92;1.50;;;;;;;;;;4992752;28;20045;-86
2023/04/28 05:33:25;;;;;;;3.08;1.40;;;;;;;;;;4993082;28;20034;-86
2023/04/28 05:35:51;;;;;;;3.25;1.70;;;;;;;;;;4994744;28;20041;-84
2023/04/28 05:38:16;;;;;;;1.88;1.60;;;;;;;;;;4993395;28;20042;-85
2023/04/28 05:40:43;;;;;;;3.13;1.40;;;;;;;;;;5005812;28;20195;-85
2023/04/28 05:43:10;;;;;;;2.17;1.23;;;;;;;;;;4993998;28;20033;-84
2023/04/28 05:45:36;;;;;;;4.85;1.40;;;;;;;;;;4992647;28;20548;-85
2023/04/28 05:48:03;;;;;;;3.58;1.27;;;;;;;;;;4994429;28;20471;-85
2023/04/28 05:50:30;;;;;;;2.17;1.10;;;;;;;;;;4979772;28;20117;-85
2023/04/28 05:52:56;;;;;;;2.15;1.17;;;;;;;;;;4993660;28;20057;-86
2023/04/28 05:55:22;;;;;;;2.25;1.20;;;;;;;;;;4993112;28;20034;-84
2023/04/28 05:57:48;;;;;;;10.95;1.38;;;;;;;;;;4991773;28;20034;-85
2023/04/28 06:00:14;;;;;;;3.05;1.10;;;;;;;;;;4992048;28;20034;-86
2023/04/28 06:02:40;;;;;;;2.78;1.70;;;;;;;;;;4990343;28;20038;-86
2023/04/28 06:05:06;;;;;;;1.33;1.10;;;;;;;;;;4992857;28;20033;-86
2023/04/28 06:07:32;;;;;;;1.80;1.20;;;;;;;;;;4993071;28;20034;-84
2023/04/28 06:09:58;;;;;;;1.98;1.25;;;;;;;;;;4995782;28;20404;-85
2023/04/28 06:12:23;;;;;;;1.58;1.20;;;;;;;;;;4992874;28;20034;-87
2023/04/28 06:14:52;;;;;;;1.77;1.00;;;;;;;;;;4993479;28;20038;-86
2023/04/28 06:17:18;;;;;;;1.40;1.10;;;;;;;;;;4988469;28;20125;-85
2023/04/28 06:19:43;;;;;;;1.85;1.40;;;;;;;;;;4994320;28;20038;-84
2023/04/28 06:22:09;;;;;;;2.40;1.25;;;;;;;;;;5002389;28;20038;-86
2023/04/28 06:24:34;;;;;;;2.47;1.30;;;;;;;;;;4976923;28;20038;-85
2023/04/28 06:27:02;;;;;;;1.95;1.13;;;;;;;;;;4986463;28;20113;-86
2023/04/28 06:29:28;;;;;;;2.70;1.30;;;;;;;;;;4992676;28;20567;-86
2023/04/28 06:31:56;;;;;;;1.95;1.00;;;;;;;;;;4985733;28;20539;-85
2023/04/28 06:34:29;;;;;;;1.77;1.00;;;;;;;;;;4990979;28;20113;-85
2023/04/28 06:36:57;;;;;;;1.95;1.20;;;;;;;;;;4991138;28;20030;-85
2023/04/28 06:39:24;;;;;;;2.03;1.45;;;;;;;;;;4993557;28;20034;-84
2023/04/28 06:41:50;;;;;;;2.90;1.55;;;;;;;;;;4981931;28;20412;-83
2023/04/28 06:44:16;;;;;;;3.38;1.38;;;;;;;;;;4994330;28;20046;-86
2023/04/28 06:46:42;;;;;;;2.55;1.33;;;;;;;;;;4994922;28;20026;-85
2023/04/28 06:49:09;;;;;;;2.33;1.60;;;;;;;;;;4993786;28;20056;-86
2023/04/28 06:51:34;;;;;;;3.95;1.40;;;;;;;;;;4974104;28;20653;-86
2023/04/28 06:54:00;;;;;;;2.15;1.48;;;;;;;;;;4986092;28;20596;-84
2023/04/28 06:56:26;;;;;;;3.45;1.50;;;;;;;;;;4991144;28;20110;-85
2023/04/28 06:58:53;;;;;;;2.65;1.40;;;;;;;;;;5050350;23;20139;-85
2023/04/28 07:01:19;;;;;;;3.33;1.30;;;;;;;;;;5046651;28;20036;-85
2023/04/28 07:03:44;;;;;;;3.65;1.48;;;;;;;;;;5050065;28;20037;-85
2023/04/28 07:06:10;;;;;;;1.60;1.20;;;;;;;;;;5052476;28;20072;-85
2023/04/28 07:08:35;;;;;;;2.08;1.20;;;;;;;;;;5054432;28;20029;-85
2023/04/28 07:11:05;;;;;;;5.38;1.40;;;;;;;;;;5057246;28;20029;-85
2023/04/28 07:13:31;;;;;;;2.25;1.10;;;;;;;;;;5040896;28;20052;-84
2023/04/28 07:15:57;;;;;;;2.45;1.23;;;;;;;;;;5058548;28;20042;-86
2023/04/28 07:18:22;;;;;;;5.68;1.50;;;;;;;;;;5044677;28;20040;-87
2023/04/28 07:20:48;;;;;;;3.72;2.10;;;;;;;;;;5064514;28;20041;-85
2023/04/28 07:23:13;;;;;;;4.22;2.50;;;;;;;;;;5068281;28;20442;-85
2023/04/28 07:25:40;;;;;;;3.20;2.30;;;;;;;;;;5056861;28;20068;-86
2023/04/28 07:28:06;;;;;;;3.08;1.80;;;;;;;;;;5054848;28;20029;-86
2023/04/28 07:30:32;;;;;;;4.65;2.95;;;;;;;;;;5040081;28;20033;-84
2023/04/28 07:32:57;;;;;;;2.45;1.67;;;;;;;;;;5054677;28;20043;-86
2023/04/28 07:35:23;;;;;;;2.80;1.50;;;;;;;;;;5046747;28;20033;-86
2023/04/28 07:37:49;;;;;;;7.22;4.53;;;;;;;;;;5050346;28;20548;-85
2023/04/28 07:40:15;;;;;;;9.88;3.65;;;;;;;;;;5053513;28;20039;-87
2023/04/28 07:42:40;;;;;;;5.28;2.60;;;;;;;;;;5052431;28;20037;-85
2023/04/28 07:45:06;;;;;;;5.50;1.80;;;;;;;;;;5056781;28;20029;-85
2023/04/28 07:47:32;;;;;;;6.07;1.70;;;;;;;;;;5044120;28;20546;-84
2023/04/28 07:49:59;;;;;;;2.15;1.33;;;;;;;;;;5046907;28;20119;-86
2023/04/28 07:52:25;;;;;;;3.47;1.60;;;;;;;;;;5048974;28;20047;-86
2023/04/28 07:54:50;;;;;;;3.22;1.35;;;;;;;;;;5054908;28;20029;-86
2023/04/28 07:57:16;;;;;;;1.58;1.30;;;;;;;;;;5043916;28;20036;-86
2023/04/28 07:59:41;;;;;;;2.35;1.20;;;;;;;;;;5048825;28;20407;-85
2023/04/28 08:02:14;;;;;;;1.95;1.20;;;;;;;;;;5057093;28;20413;-85
2023/04/28 08:04:40;;;;;;;2.35;1.13;;;;;;;;;;5059771;28;20037;-87
2023/04/28 08:07:05;;;;;;;1.88;1.23;;;;;;;;;;5069274;28;20044;-85
2023/04/28 08:09:31;;;;;;;2.20;1.40;;;;;;;;;;5061944;28;20040;-84
2023/04/28 08:11:57;;;;;;;2.05;1.30;;;;;;;;;;5064708;28;20540;-85
2023/04/28 08:14:23;;;;;;;2.20;1.38;;;;;;;;;;5063068;28;20052;-85
2023/04/28 08:16:49;;;;;;;3.17;1.20;;;;;;;;;;5053462;28;20056;-85
2023/04/28 08:19:14;;;;;;;2.25;1.25;;;;;;;;;;5059544;28;20040;-86
2023/04/28 08:21:40;;;;;;;3.13;1.50;;;;;;;;;;5065054;28;20395;-85
2023/04/28 08:24:07;;;;;;;1.45;1.10;;;;;;;;;;5060010;28;20052;-83
2023/04/28 08:26:32;;;;;;;1.90;1.30;;;;;;;;;;5046895;28;20043;-84
2023/04/28 08:28:58;;;;;;;1.73;1.20;;;;;;;;;;5068785;28;20036;-84
2023/04/28 08:31:24;;;;;;;1.48;1.13;;;;;;;;;;5069933;28;20037;-84
2023/04/28 08:33:50;;;;;;;2.45;1.30;;;;;;;;;;5055206;28;20499;-84
2023/04/28 08:36:16;;;;;;;3.17;1.30;;;;;;;;;;5067443;28;20033;-83
2023/04/28 08:38:43;;;;;;;3.30;1.20;;;;;;;;;;5058865;28;20126;-84
2023/04/28 08:41:08;;;;;;;3.05;1.58;;;;;;;;;;5063379;28;20391;-85
2023/04/28 08:43:35;;;;;;;2.97;1.58;;;;;;;;;;5063679;28;20067;-84
2023/04/28 08:46:05;;;;;;;2.92;1.45;;;;;;;;;;5066920;28;20043;-85
2023/04/28 08:48:36;;;;;;;2.65;1.65;;;;;;;;;;5067792;28;20041;-85
2023/04/28 08:51:02;;;;;;;4.47;1.50;;;;;;;;;;5060438;28;20037;-83
2023/04/28 08:53:28;;;;;;;2.88;1.40;;;;;;;;;;5056910;28;20033;-84
2023/04/28 08:55:56;;;;;;;1.95;1.30;;;;;;;;;;5060637;28;20403;-84
2023/04/28 08:58:26;;;;;;;2.33;1.25;;;;;;;;;;5061161;28;20047;-84
2023/04/28 09:00:52;;;;;;;2.47;1.20;;;;;;;;;;5060893;28;20037;-85
2023/04/28 09:03:18;;;;;;;3.13;1.40;;;;;;;;;;5057943;28;20047;-85
2023/04/28 09:05:44;;;;;;;2.83;1.20;;;;;;;;;;5059300;28;20394;-85
2023/04/28 09:08:11;;;;;;;1.85;1.30;;;;;;;;;;5055805;28;20037;-84
2023/04/28 09:10:37;;;;;;;1.95;1.25;;;;;;;;;;5057504;28;20041;-84
2023/04/28 09:13:03;;;;;;;2.88;1.38;;;;;;;;;;5049266;28;20039;-85
2023/04/28 09:15:31;;;;;;;2.53;1.30;;;;;;;;;;5050601;28;20410;-84
2023/04/28 09:17:57;;;;;;;3.50;1.58;;;;;;;;;;5053326;28;20059;-84
2023/04/28 09:20:26;;;;;;;4.90;2.35;;;;;;;;;;5056872;28;20558;-85
2023/04/28 09:22:53;;;;;;;4.93;1.35;;;;;;;;;;5049887;28;20056;-85
2023/04/28 09:25:23;;;;;;;2.63;1.35;;;;;;;;;;5041577;28;20029;-85
2023/04/28 09:27:49;;;;;;;2.92;1.45;;;;;;;;;;5056963;28;20136;-86
2023/04/28 09:30:15;;;;;;;2.60;1.35;;;;;;;;;;5049209;28;20083;-85
2023/04/28 09:32:40;;;;;;;3.90;1.42;;;;;;;;;;5049514;28;20037;-85
2023/04/28 09:35:07;;;;;;;2.72;1.27;;;;;;;;;;5062728;28;20108;-85
2023/04/28 09:37:33;;;;;;;2.30;1.35;;;;;;;;;;5055062;28;20060;-85
2023/04/28 09:40:10;;;;;;;3.50;1.40;;;;;;;;;;5047636;28;20578;-84
2023/04/28 09:42:40;;;;;;;3.42;2.10;;;;;;;;;;5042360;28;20071;-83
2023/04/28 09:45:13;;;;;;;2.95;1.85;;;;;;;;;;5051210;28;20116;-84
2023/04/28 09:47:39;;;;;;;;;;;;;;;;;;5053695;28;20576;-84
2023/04/28 09:50:08;;;;;;;3.47;1.92;;;;;;;;;;5045887;28;19912;-85
2023/04/28 09:52:34;;;;;;;3.45;1.67;;;;;;;;;;5054782;28;20037;-84
2023/04/28 09:55:06;;;;;;;3.10;1.50;;;;;;;;;;5056254;28;20037;-84
2023/04/28 09:57:33;;;;;;;2.08;1.35;;;;;;;;;;5051661;28;20079;-85
2023/04/28 10:00:00;;;;;;;3.65;1.48;;;;;;;;;;5042887;28;20048;-85
2023/04/28 10:02:26;;;;;;;3.65;1.80;;;;;;;;;;5050689;28;20041;-85
2023/04/28 10:04:52;;;;;;;3.70;1.90;;;;;;;;;;5045387;28;20391;-84
2023/04/28 10:07:20;;;;;;;2.88;1.60;;;;;;;;;;5045202;28;20091;-85
2023/04/28 10:09:49;;;;;;;3.47;1.90;;;;;;;;;;5041009;28;20083;-84
2023/04/28 10:12:16;;;;;;;4.45;2.10;;;;;;;;;;5036305;28;20042;-84
2023/04/28 10:14:43;;;;;;;3.17;2.30;;;;;;;;;;5042585;28;20171;-85
2023/04/28 10:17:10;;;;;;;3.53;1.70;;;;;;;;;;5044703;28;20056;-84
2023/04/28 10:19:36;;;;;;;2.70;1.90;;;;;;;;;;5046779;28;20033;-85
2023/04/28 10:22:22;;;;;;;4.05;2.10;;;;;;;;;;5046424;28;20102;-86
2023/04/28 10:25:10;;;;;;;4.57;1.90;;;;;;;;;;5039422;28;20066;-85
2023/04/28 10:27:38;;;;;;;3.63;1.75;;;;;;;;;;5039123;28;20038;-84
2023/04/28 10:30:14;;;;;;;2.67;1.70;;;;;;;;;;5040865;28;20045;-83
2023/04/28 10:32:41;;;;;;;2.03;1.67;;;;;;;;;;5058630;28;20041;-84
2023/04/28 10:35:29;;;;;;;5.43;2.83;;;;;;;;;;5046058;28;20035;-84
2023/04/28 10:38:22;;;;;;;3.65;2.30;;;;;;;;;;5043946;28;20087;-84
2023/04/28 10:41:00;;;;;;;4.75;2.72;;;;;;;;;;5049532;28;20063;-84
2023/04/28 10:43:31;;;;;;;2.55;1.70;;;;;;;;;;5053136;28;20152;-84
2023/04/28 10:46:00;;;;;;;2.80;1.90;;;;;;;;;;5043932;28;20051;-85
2023/04/28 10:48:25;;;;;;;1.90;1.40;;;;;;;;;;5038147;28;20037;-84
2023/04/28 10:51:03;;;;;;;2.00;1.40;;;;;;;;;;5043366;28;20029;-84
2023/04/28 10:53:47;;;;;;;2.75;1.70;;;;;;;;;;5048909;28;20044;-84
2023/04/28 10:56:18;;;;;;;5.40;1.58;;;;;;;;;;5044975;28;20033;-87
2023/04/28 10:58:45;;;;;;;3.85;1.30;;;;;;;;;;5050480;28;20060;-85
2023/04/28 11:01:20;;;;;;;4.35;1.30;;;;;;;;;;5052604;28;20030;-85
2023/04/28 11:06:30;;;;;;;2.22;1.55;;;;;;;;;;5041912;28;20129;-87
2023/04/28 11:08:59;;;;;;;4.20;2.20;;;;;;;;;;5045959;28;20060;-84
2023/04/28 11:11:35;;;;;;;3.53;1.60;;;;;;;;;;5038540;28;20064;-83
2023/04/28 11:14:16;;;;;;;3.83;1.50;;;;;;;;;;5050216;28;20033;-85
2023/04/28 11:16:51;;;;;;;2.45;1.70;;;;;;;;;;5055163;28;20041;-85
2023/04/28 11:19:24;;;;;;;3.08;1.58;;;;;;;;;;5047476;28;20498;-84
2023/04/28 11:21:52;;;;;;;7.47;3.15;;;;;;;;;;5042050;28;20034;-85
2023/04/28 11:24:18;;;;;;;2.50;1.77;;;;;;;;;;5042901;28;20051;-86
2023/04/28 11:26:44;;;;;;;3.58;1.65;;;;;;;;;;5047086;28;20037;-86
2023/04/28 11:29:10;;;;;;;4.25;2.42;;;;;;;;;;5050617;28;20033;-86
2023/04/28 11:31:37;;;;;;;5.35;2.95;;;;;;;;;;5039535;28;20040;-86
2023/04/28 11:34:13;;;;;;;5.25;3.33;;;;;;;;;;5052261;28;20113;-86
2023/04/28 11:36:40;;;;;;;5.78;3.10;;;;;;;;;;5040288;28;20055;-84
2023/04/28 11:39:10;;;;;;;3.65;1.80;;;;;;;;;;5053589;28;20037;-82
2023/04/28 11:41:38;;;;;;;3.75;2.15;;;;;;;;;;5052711;28;20044;-84
2023/04/28 11:44:14;;;;;;;2.92;2.15;;;;;;;;;;5048448;28;20045;-81
2023/04/28 11:46:45;;;;;;;3.35;1.92;;;;;;;;;;5051131;28;20033;-82
2023/04/28 11:49:11;;;;;;;5.85;3.20;;;;;;;;;;5037092;28;20025;-83
2023/04/28 11:51:38;;;;;;;2.75;2.00;;;;;;;;;;5050575;28;20075;-83
2023/04/28 11:54:10;;;;;;;4.07;2.10;;;;;;;;;;5043183;28;20407;-82
2023/04/28 11:56:37;;;;;;;2.95;1.83;;;;;;;;;;5042202;28;20090;-83
2023/04/28 11:59:08;;;;;;;2.55;1.70;;;;;;;;;;5043388;28;20051;-82
2023/04/28 12:01:54;;;;;;;2.78;2.13;;;;;;;;;;5052088;28;20032;-82
2023/04/28 12:04:29;;;;;;;2.83;2.10;;;;;;;;;;5051876;28;20042;-82
2023/04/28 12:07:02;;;;;;;2.88;1.70;;;;;;;;;;5050390;28;20033;-83
2023/04/28 12:09:28;;;;;;;3.88;1.65;;;;;;;;;;5037650;28;20151;-84
2023/04/28 12:11:56;;;;;;;2.80;2.17;;;;;;;;;;5052066;28;20606;-83
2023/04/28 12:14:22;;;;;;;2.42;1.70;;;;;;;;;;5044511;28;20041;-84
2023/04/28 12:16:49;;;;;;;4.15;2.50;;;;;;;;;;5045631;28;20080;-84
2023/04/28 12:19:15;;;;;;;2.40;1.63;;;;;;;;;;5050092;28;20033;-83
2023/04/28 12:21:41;;;;;;;3.70;2.20;;;;;;;;;;5050056;28;20036;-81
2023/04/28 12:24:21;;;;;;;6.63;2.92;;;;;;;;;;5035224;28;20482;-83
2023/04/28 12:26:47;;;;;;;4.15;1.90;;;;;;;;;;5039943;28;20945;-81
2023/04/28 12:29:38;;;;;;;3.72;1.83;;;;;;;;;;5042911;28;20045;-82
2023/04/28 12:32:06;;;;;;;2.00;1.20;;;;;;;;;;5043560;28;20060;-81
2023/04/28 12:34:32;;;;;;;1.95;1.40;;;;;;;;;;5050738;28;20032;-86
2023/04/28 12:37:02;;;;;;;1.40;0.90;;;;;;;;;;5051710;28;20037;-82
2023/04/28 12:39:28;;;;;;;1.80;1.13;;;;;;;;;;5049830;28;20518;-82
2023/04/28 12:41:54;;;;;;;1.50;0.90;;;;;;;;;;5035565;28;20033;-83
2023/04/28 12:44:21;;;;;;;1.25;0.90;;;;;;;;;;5038404;28;20045;-84
2023/04/28 12:46:47;;;;;;;4.88;1.10;;;;;;;;;;5039701;28;20136;-83
2023/04/28 12:49:14;;;;;;;1.02;0.82;;;;;;;;;;5046538;28;20033;-83
2023/04/28 12:51:39;;;;;;;2.45;0.82;;;;;;;;;;5054813;28;20044;-82
2023/04/28 12:54:05;;;;;;;2.00;0.88;;;;;;;;;;5053573;28;20117;-82
2023/04/28 12:56:31;;;;;;;1.23;0.90;;;;;;;;;;5048750;28;20060;-83
2023/04/28 12:58:56;;;;;;;1.08;0.90;;;;;;;;;;5040165;28;20041;-84
2023/04/28 13:01:22;;;;;;;3.22;1.40;;;;;;;;;;5042735;28;20048;-84
2023/04/28 13:03:49;;;;;;;1.40;1.10;;;;;;;;;;5044713;28;20049;-82
2023/04/28 13:06:16;;;;;;;1.10;1.00;;;;;;;;;;5047811;28;20037;-82
2023/04/28 13:08:41;;;;;;;2.38;1.23;;;;;;;;;;5051791;28;20123;-83
2023/04/28 13:11:07;;;;;;;1.90;1.38;;;;;;;;;;5054141;28;20743;-84
2023/04/28 13:13:33;;;;;;;2.67;1.20;;;;;;;;;;5043866;28;20060;-82
2023/04/28 13:15:58;;;;;;;1.58;0.90;;;;;;;;;;5038753;28;20434;-84
2023/04/28 13:18:24;;;;;;;1.63;1.13;;;;;;;;;;5041296;28;20041;-84
2023/04/28 13:20:49;;;;;;;2.28;1.10;;;;;;;;;;5046765;28;20036;-84
2023/04/28 13:23:15;;;;;;;1.83;1.10;;;;;;;;;;5048695;28;20067;-83
2023/04/28 13:28:06;;;;;;;2.42;1.20;;;;;;;;;;4992633;28;20528;-83
2023/04/28 13:30:33;;;;;;;1.58;1.08;;;;;;;;;;4995230;28;20062;-83
2023/04/28 13:32:59;;;;;;;4.70;1.50;;;;;;;;;;4981640;28;20034;-82
2023/04/28 13:35:25;;;;;;;5.63;4.53;;;;;;;;;;4983318;28;20093;-84
2023/04/28 13:37:54;;;;;;;1.60;1.10;;;;;;;;;;5017866;28;20072;-84
2023/04/28 13:40:20;;;;;;;1.23;1.00;;;;;;;;;;5008300;28;20456;-85
2023/04/28 13:42:46;;;;;;;1.60;1.00;;;;;;;;;;5009784;28;20080;-85
2023/04/28 13:45:11;;;;;;;2.50;0.90;;;;;;;;;;5009011;28;20034;-86
2023/04/28 13:47:37;;;;;;;1.20;1.05;;;;;;;;;;5010533;28;20042;-83
2023/04/28 13:50:03;;;;;;;1.67;0.90;;;;;;;;;;5000302;28;20053;-83
2023/04/28 13:52:28;;;;;;;1.50;1.10;;;;;;;;;;5003042;28;20081;-85
2023/04/28 13:54:54;;;;;;;1.23;0.98;;;;;;;;;;5011479;28;20042;-83
2023/04/28 13:57:19;;;;;;;2.90;1.70;;;;;;;;;;5012563;28;20044;-82
2023/04/28 13:59:45;;;;;;;1.63;1.17;;;;;;;;;;5012116;28;20120;-83
2023/04/28 14:02:10;;;;;;;1.88;1.25;;;;;;;;;;4994504;28;20097;-82
2023/04/28 14:04:36;;;;;;;4.07;2.35;;;;;;;;;;4998353;28;20694;-84
2023/04/28 14:07:02;;;;;;;1.70;1.23;;;;;;;;;;5000714;28;20048;-83
2023/04/28 14:09:27;;;;;;;1.85;1.15;;;;;;;;;;5003965;28;20092;-82
2023/04/28 14:11:55;;;;;;;7.20;4.07;;;;;;;;;;5007004;28;20808;-83
2023/04/28 14:14:21;;;;;;;2.53;1.50;;;;;;;;;;5012809;28;20106;-83
2023/04/28 14:16:47;;;;;;;3.15;1.10;;;;;;;;;;5011383;28;20132;-85
2023/04/28 14:19:16;;;;;;;1.92;1.02;;;;;;;;;;5000543;28;20062;-84
2023/04/28 14:21:42;;;;;;;2.22;1.25;;;;;;;;;;5002122;28;20033;-83
2023/04/28 14:24:09;;;;;;;1.42;1.08;;;;;;;;;;5016929;28;20046;-83
2023/04/28 14:26:35;;;;;;;1.20;0.90;;;;;;;;;;5005210;28;20481;-85
2023/04/28 14:29:00;;;;;;;2.05;1.20;;;;;;;;;;5006916;28;20060;-86
2023/04/28 14:31:27;;;;;;;1.00;0.90;;;;;;;;;;5018465;28;20079;-85
2023/04/28 14:33:52;;;;;;;3.03;2.10;;;;;;;;;;5009883;28;20037;-82
2023/04/28 14:36:19;;;;;;;1.30;1.00;;;;;;;;;;4995492;28;20073;-85
2023/04/28 14:38:44;;;;;;;1.60;1.20;;;;;;;;;;5023645;28;20041;-85
2023/04/28 14:41:10;;;;;;;0.85;0.70;;;;;;;;;;5006321;28;20037;-85
2023/04/28 14:43:36;;;;;;;1.00;0.90;;;;;;;;;;4986445;28;20476;-84
2023/04/28 14:46:03;;;;;;;1.50;0.80;;;;;;;;;;4999491;28;20038;-84
2023/04/28 14:48:31;;;;;;;1.00;0.70;;;;;;;;;;5013122;28;20566;-86